Port Angeles, Washington
Current Conditions -  °F | °C
As of 5:11 AM on Friday 28 Nov 2014 (Local Time) from KCLM Reporting Station
Light Rain Light Rain  
Wind Chill: 41°   Ceiling: 1000
Heat Index: 46°   Visibility: 10mi
Dew Point: 43°   Wind: 12mph
Humidity: 89%   Direction: 300°WNW
Pressure: 29.55"   Gusts: NA
Location:  48.12°N, 123.43°W
Report Text: KCLM 281311Z AUTO 30010KT 10SM -RA BKN010 BKN017 OVC023 08/06 A2955 RMK AO2 P0001 T00780061 $
Loading
Personal Weather Stations






























Interactive Weather Map New forecast layout! Learn more

10-Day Weather Forecast

Advertisements
Track Severe Weather on mobile